sensor_id;sensor_type;location;lat;lon;timestamp;P1;durP1;ratioP1;P2;durP2;ratioP2
45059;SDS011;30799;49.060;9.312;2022-12-11T00:01:56;34.60;;;15.70;;
45059;SDS011;30799;49.060;9.312;2022-12-11T00:04:23;30.52;;;15.02;;
45059;SDS011;30799;49.060;9.312;2022-12-11T00:06:51;32.22;;;15.52;;
45059;SDS011;30799;49.060;9.312;2022-12-11T00:09:18;33.92;;;15.68;;
45059;SDS011;30799;49.060;9.312;2022-12-11T00:11:46;30.38;;;14.68;;
45059;SDS011;30799;49.060;9.312;2022-12-11T00:14:13;31.55;;;14.70;;
45059;SDS011;30799;49.060;9.312;2022-12-11T00:16:40;29.92;;;14.35;;
45059;SDS011;30799;49.060;9.312;2022-12-11T00:19:08;30.85;;;14.55;;
45059;SDS011;30799;49.060;9.312;2022-12-11T00:21:34;26.10;;;13.73;;
45059;SDS011;30799;49.060;9.312;2022-12-11T00:24:01;29.35;;;15.10;;
45059;SDS011;30799;49.060;9.312;2022-12-11T00:26:28;29.90;;;14.50;;
45059;SDS011;30799;49.060;9.312;2022-12-11T00:28:55;31.63;;;14.52;;
45059;SDS011;30799;49.060;9.312;2022-12-11T00:31:22;26.58;;;13.70;;
45059;SDS011;30799;49.060;9.312;2022-12-11T00:33:49;28.83;;;14.88;;
45059;SDS011;30799;49.060;9.312;2022-12-11T00:36:21;30.50;;;14.30;;
45059;SDS011;30799;49.060;9.312;2022-12-11T00:38:50;26.02;;;13.57;;
45059;SDS011;30799;49.060;9.312;2022-12-11T00:41:18;28.75;;;13.60;;
45059;SDS011;30799;49.060;9.312;2022-12-11T00:46:12;26.27;;;13.75;;
45059;SDS011;30799;49.060;9.312;2022-12-11T00:48:39;26.67;;;13.65;;
45059;SDS011;30799;49.060;9.312;2022-12-11T00:51:06;24.92;;;13.20;;
45059;SDS011;30799;49.060;9.312;2022-12-11T00:53:34;30.55;;;13.48;;
45059;SDS011;30799;49.060;9.312;2022-12-11T00:56:00;25.13;;;13.07;;
45059;SDS011;30799;49.060;9.312;2022-12-11T00:58:27;23.98;;;12.00;;
45059;SDS011;30799;49.060;9.312;2022-12-11T01:00:53;25.95;;;12.68;;
45059;SDS011;30799;49.060;9.312;2022-12-11T01:03:20;26.30;;;13.15;;
45059;SDS011;30799;49.060;9.312;2022-12-11T01:05:51;26.90;;;13.52;;
45059;SDS011;30799;49.060;9.312;2022-12-11T01:08:19;25.08;;;13.18;;
45059;SDS011;30799;49.060;9.312;2022-12-11T01:10:46;22.23;;;11.93;;
45059;SDS011;30799;49.060;9.312;2022-12-11T01:13:12;23.35;;;12.15;;
45059;SDS011;30799;49.060;9.312;2022-12-11T01:15:41;21.48;;;11.73;;
45059;SDS011;30799;49.060;9.312;2022-12-11T01:18:10;24.02;;;12.63;;
45059;SDS011;30799;49.060;9.312;2022-12-11T01:20:38;23.30;;;11.35;;
45059;SDS011;30799;49.060;9.312;2022-12-11T01:23:05;19.20;;;10.65;;
45059;SDS011;30799;49.060;9.312;2022-12-11T01:25:34;22.80;;;11.23;;
45059;SDS011;30799;49.060;9.312;2022-12-11T01:28:03;26.00;;;11.93;;
45059;SDS011;30799;49.060;9.312;2022-12-11T01:30:31;24.08;;;11.63;;
45059;SDS011;30799;49.060;9.312;2022-12-11T01:32:58;19.88;;;11.00;;
45059;SDS011;30799;49.060;9.312;2022-12-11T01:35:26;20.17;;;11.60;;
45059;SDS011;30799;49.060;9.312;2022-12-11T01:37:53;18.58;;;11.18;;
45059;SDS011;30799;49.060;9.312;2022-12-11T01:40:20;22.65;;;11.55;;
45059;SDS011;30799;49.060;9.312;2022-12-11T01:42:47;21.00;;;11.27;;
45059;SDS011;30799;49.060;9.312;2022-12-11T01:45:22;19.48;;;10.98;;
45059;SDS011;30799;49.060;9.312;2022-12-11T01:47:59;27.30;;;11.77;;
45059;SDS011;30799;49.060;9.312;2022-12-11T01:50:31;18.27;;;11.10;;
45059;SDS011;30799;49.060;9.312;2022-12-11T01:53:01;24.52;;;11.68;;
45059;SDS011;30799;49.060;9.312;2022-12-11T01:55:31;20.50;;;10.32;;
45059;SDS011;30799;49.060;9.312;2022-12-11T01:57:59;20.88;;;10.60;;
45059;SDS011;30799;49.060;9.312;2022-12-11T02:00:27;20.23;;;10.90;;
45059;SDS011;30799;49.060;9.312;2022-12-11T02:02:54;20.25;;;10.75;;
45059;SDS011;30799;49.060;9.312;2022-12-11T02:05:21;19.83;;;10.60;;
45059;SDS011;30799;49.060;9.312;2022-12-11T02:07:57;17.60;;;11.00;;
45059;SDS011;30799;49.060;9.312;2022-12-11T02:11:09;17.17;;;10.48;;
45059;SDS011;30799;49.060;9.312;2022-12-11T02:13:18;17.23;;;10.18;;
45059;SDS011;30799;49.060;9.312;2022-12-11T02:21:09;17.58;;;10.13;;
45059;SDS011;30799;49.060;9.312;2022-12-11T02:26:36;18.60;;;10.35;;
45059;SDS011;30799;49.060;9.312;2022-12-11T02:29:18;17.27;;;9.73;;
45059;SDS011;30799;49.060;9.312;2022-12-11T02:31:53;18.27;;;10.27;;
45059;SDS011;30799;49.060;9.312;2022-12-11T02:34:31;19.30;;;10.57;;
45059;SDS011;30799;49.060;9.312;2022-12-11T02:37:21;15.80;;;9.38;;
45059;SDS011;30799;49.060;9.312;2022-12-11T02:39:51;15.77;;;9.55;;
45059;SDS011;30799;49.060;9.312;2022-12-11T02:42:19;16.13;;;9.48;;
45059;SDS011;30799;49.060;9.312;2022-12-11T02:44:47;17.10;;;9.30;;
45059;SDS011;30799;49.060;9.312;2022-12-11T02:49:45;16.92;;;9.65;;
45059;SDS011;30799;49.060;9.312;2022-12-11T02:52:15;17.27;;;9.07;;
45059;SDS011;30799;49.060;9.312;2022-12-11T02:54:45;16.73;;;8.82;;
45059;SDS011;30799;49.060;9.312;2022-12-11T02:57:15;18.52;;;9.55;;
45059;SDS011;30799;49.060;9.312;2022-12-11T02:59:46;15.57;;;9.02;;
45059;SDS011;30799;49.060;9.312;2022-12-11T03:02:13;15.60;;;8.50;;
45059;SDS011;30799;49.060;9.312;2022-12-11T03:04:42;14.13;;;8.40;;
45059;SDS011;30799;49.060;9.312;2022-12-11T03:07:14;14.35;;;9.18;;
45059;SDS011;30799;49.060;9.312;2022-12-11T03:09:48;16.13;;;8.35;;
45059;SDS011;30799;49.060;9.312;2022-12-11T03:12:17;15.32;;;9.48;;
45059;SDS011;30799;49.060;9.312;2022-12-11T03:14:47;17.83;;;9.97;;
45059;SDS011;30799;49.060;9.312;2022-12-11T03:17:16;16.85;;;9.25;;
45059;SDS011;30799;49.060;9.312;2022-12-11T03:22:29;15.10;;;9.15;;
45059;SDS011;30799;49.060;9.312;2022-12-11T03:25:11;14.60;;;8.82;;
45059;SDS011;30799;49.060;9.312;2022-12-11T03:30:35;18.30;;;9.20;;
45059;SDS011;30799;49.060;9.312;2022-12-11T03:33:05;17.13;;;9.52;;
45059;SDS011;30799;49.060;9.312;2022-12-11T03:35:43;19.30;;;9.68;;
45059;SDS011;30799;49.060;9.312;2022-12-11T03:38:20;16.83;;;9.07;;
45059;SDS011;30799;49.060;9.312;2022-12-11T03:41:01;18.67;;;9.32;;
45059;SDS011;30799;49.060;9.312;2022-12-11T03:43:30;17.92;;;10.18;;
45059;SDS011;30799;49.060;9.312;2022-12-11T03:45:59;16.70;;;9.32;;
45059;SDS011;30799;49.060;9.312;2022-12-11T03:48:28;19.50;;;9.45;;
45059;SDS011;30799;49.060;9.312;2022-12-11T03:50:59;15.57;;;9.18;;
45059;SDS011;30799;49.060;9.312;2022-12-11T03:53:30;17.08;;;8.80;;
45059;SDS011;30799;49.060;9.312;2022-12-11T03:55:58;15.23;;;9.77;;
45059;SDS011;30799;49.060;9.312;2022-12-11T03:58:27;15.88;;;9.35;;
45059;SDS011;30799;49.060;9.312;2022-12-11T04:00:54;24.88;;;11.23;;
45059;SDS011;30799;49.060;9.312;2022-12-11T04:03:21;17.85;;;9.52;;
45059;SDS011;30799;49.060;9.312;2022-12-11T04:05:49;20.63;;;10.13;;
45059;SDS011;30799;49.060;9.312;2022-12-11T04:08:17;21.38;;;10.50;;
45059;SDS011;30799;49.060;9.312;2022-12-11T04:10:48;16.33;;;9.10;;
45059;SDS011;30799;49.060;9.312;2022-12-11T04:13:35;19.33;;;9.88;;
45059;SDS011;30799;49.060;9.312;2022-12-11T04:16:02;15.75;;;9.27;;
45059;SDS011;30799;49.060;9.312;2022-12-11T04:18:29;17.17;;;9.48;;
45059;SDS011;30799;49.060;9.312;2022-12-11T04:21:14;19.33;;;10.30;;
45059;SDS011;30799;49.060;9.312;2022-12-11T04:24:04;16.42;;;8.43;;
45059;SDS011;30799;49.060;9.312;2022-12-11T04:26:45;19.40;;;10.68;;
45059;SDS011;30799;49.060;9.312;2022-12-11T04:29:12;17.98;;;10.02;;
45059;SDS011;30799;49.060;9.312;2022-12-11T04:31:40;18.38;;;9.43;;
45059;SDS011;30799;49.060;9.312;2022-12-11T04:34:07;20.83;;;10.57;;
45059;SDS011;30799;49.060;9.312;2022-12-11T04:36:33;20.63;;;9.93;;
45059;SDS011;30799;49.060;9.312;2022-12-11T04:39:01;19.02;;;9.50;;
45059;SDS011;30799;49.060;9.312;2022-12-11T04:41:28;23.70;;;10.25;;
45059;SDS011;30799;49.060;9.312;2022-12-11T04:43:55;21.20;;;11.07;;
45059;SDS011;30799;49.060;9.312;2022-12-11T04:46:22;18.63;;;10.13;;
45059;SDS011;30799;49.060;9.312;2022-12-11T04:48:50;21.60;;;9.98;;
45059;SDS011;30799;49.060;9.312;2022-12-11T04:51:22;20.17;;;10.65;;
45059;SDS011;30799;49.060;9.312;2022-12-11T04:53:50;21.73;;;10.25;;
45059;SDS011;30799;49.060;9.312;2022-12-11T04:56:17;19.15;;;10.68;;
45059;SDS011;30799;49.060;9.312;2022-12-11T04:58:44;23.65;;;10.40;;
45059;SDS011;30799;49.060;9.312;2022-12-11T05:01:15;23.88;;;10.95;;
45059;SDS011;30799;49.060;9.312;2022-12-11T05:03:43;20.17;;;9.90;;
45059;SDS011;30799;49.060;9.312;2022-12-11T05:06:11;22.42;;;10.30;;
45059;SDS011;30799;49.060;9.312;2022-12-11T05:08:39;20.95;;;10.68;;
45059;SDS011;30799;49.060;9.312;2022-12-11T05:11:08;16.42;;;10.02;;
45059;SDS011;30799;49.060;9.312;2022-12-11T05:13:36;17.90;;;9.95;;
45059;SDS011;30799;49.060;9.312;2022-12-11T05:16:04;19.55;;;9.55;;
45059;SDS011;30799;49.060;9.312;2022-12-11T05:18:32;18.08;;;10.50;;
45059;SDS011;30799;49.060;9.312;2022-12-11T05:21:03;21.42;;;10.25;;
45059;SDS011;30799;49.060;9.312;2022-12-11T05:23:31;19.58;;;9.45;;
45059;SDS011;30799;49.060;9.312;2022-12-11T05:26:03;17.27;;;8.75;;
45059;SDS011;30799;49.060;9.312;2022-12-11T05:28:32;18.08;;;9.73;;
45059;SDS011;30799;49.060;9.312;2022-12-11T05:31:02;18.85;;;9.82;;
45059;SDS011;30799;49.060;9.312;2022-12-11T05:33:31;15.52;;;8.82;;
45059;SDS011;30799;49.060;9.312;2022-12-11T05:35:59;18.05;;;9.23;;
45059;SDS011;30799;49.060;9.312;2022-12-11T05:38:26;18.15;;;9.45;;
45059;SDS011;30799;49.060;9.312;2022-12-11T05:40:56;15.60;;;8.70;;
45059;SDS011;30799;49.060;9.312;2022-12-11T05:43:24;17.35;;;9.88;;
45059;SDS011;30799;49.060;9.312;2022-12-11T05:45:52;17.67;;;9.18;;
45059;SDS011;30799;49.060;9.312;2022-12-11T05:48:20;15.52;;;8.93;;
45059;SDS011;30799;49.060;9.312;2022-12-11T05:50:59;18.38;;;9.65;;
45059;SDS011;30799;49.060;9.312;2022-12-11T05:53:27;16.60;;;8.75;;
45059;SDS011;30799;49.060;9.312;2022-12-11T05:55:59;17.95;;;9.63;;
45059;SDS011;30799;49.060;9.312;2022-12-11T05:58:34;17.17;;;8.82;;
45059;SDS011;30799;49.060;9.312;2022-12-11T06:01:01;15.75;;;8.88;;
45059;SDS011;30799;49.060;9.312;2022-12-11T06:03:28;17.92;;;9.35;;
45059;SDS011;30799;49.060;9.312;2022-12-11T06:05:54;16.45;;;8.68;;
45059;SDS011;30799;49.060;9.312;2022-12-11T06:08:21;15.20;;;8.52;;
45059;SDS011;30799;49.060;9.312;2022-12-11T06:10:48;17.30;;;9.32;;
45059;SDS011;30799;49.060;9.312;2022-12-11T06:13:16;13.85;;;8.52;;
45059;SDS011;30799;49.060;9.312;2022-12-11T06:15:43;14.68;;;8.15;;
45059;SDS011;30799;49.060;9.312;2022-12-11T06:18:10;15.73;;;8.15;;
45059;SDS011;30799;49.060;9.312;2022-12-11T06:20:36;15.13;;;9.00;;
45059;SDS011;30799;49.060;9.312;2022-12-11T06:23:04;17.58;;;9.02;;
45059;SDS011;30799;49.060;9.312;2022-12-11T06:25:30;14.68;;;8.00;;
45059;SDS011;30799;49.060;9.312;2022-12-11T06:27:57;15.65;;;8.77;;
45059;SDS011;30799;49.060;9.312;2022-12-11T06:30:24;14.52;;;7.78;;
45059;SDS011;30799;49.060;9.312;2022-12-11T06:33:04;13.05;;;8.18;;
45059;SDS011;30799;49.060;9.312;2022-12-11T06:35:31;14.80;;;8.20;;
45059;SDS011;30799;49.060;9.312;2022-12-11T06:38:06;14.88;;;8.00;;
45059;SDS011;30799;49.060;9.312;2022-12-11T06:40:33;16.73;;;8.60;;
45059;SDS011;30799;49.060;9.312;2022-12-11T06:43:00;13.18;;;8.35;;
45059;SDS011;30799;49.060;9.312;2022-12-11T06:45:27;13.80;;;8.02;;
45059;SDS011;30799;49.060;9.312;2022-12-11T06:47:53;14.00;;;8.27;;
45059;SDS011;30799;49.060;9.312;2022-12-11T06:50:20;15.02;;;8.07;;
45059;SDS011;30799;49.060;9.312;2022-12-11T06:52:47;13.40;;;7.75;;
45059;SDS011;30799;49.060;9.312;2022-12-11T06:55:13;14.32;;;8.15;;
45059;SDS011;30799;49.060;9.312;2022-12-11T06:57:40;13.95;;;7.22;;
45059;SDS011;30799;49.060;9.312;2022-12-11T07:00:07;14.10;;;8.07;;
45059;SDS011;30799;49.060;9.312;2022-12-11T07:02:34;12.38;;;8.05;;
45059;SDS011;30799;49.060;9.312;2022-12-11T07:05:01;13.30;;;7.80;;
45059;SDS011;30799;49.060;9.312;2022-12-11T07:07:28;11.00;;;7.30;;
45059;SDS011;30799;49.060;9.312;2022-12-11T07:09:55;11.55;;;7.45;;
45059;SDS011;30799;49.060;9.312;2022-12-11T07:12:21;13.35;;;8.00;;
45059;SDS011;30799;49.060;9.312;2022-12-11T07:14:48;18.10;;;11.15;;
45059;SDS011;30799;49.060;9.312;2022-12-11T07:19:41;23.70;;;19.25;;
45059;SDS011;30799;49.060;9.312;2022-12-11T07:22:08;16.80;;;13.68;;
45059;SDS011;30799;49.060;9.312;2022-12-11T07:24:35;14.73;;;11.38;;
45059;SDS011;30799;49.060;9.312;2022-12-11T07:27:02;14.85;;;10.95;;
45059;SDS011;30799;49.060;9.312;2022-12-11T07:29:29;14.00;;;10.02;;
45059;SDS011;30799;49.060;9.312;2022-12-11T07:31:56;15.10;;;10.23;;
45059;SDS011;30799;49.060;9.312;2022-12-11T07:34:23;15.07;;;10.45;;
45059;SDS011;30799;49.060;9.312;2022-12-11T07:36:50;12.07;;;8.93;;
45059;SDS011;30799;49.060;9.312;2022-12-11T07:39:16;13.50;;;8.60;;
45059;SDS011;30799;49.060;9.312;2022-12-11T07:41:43;13.85;;;9.07;;
45059;SDS011;30799;49.060;9.312;2022-12-11T07:44:12;11.85;;;8.32;;
45059;SDS011;30799;49.060;9.312;2022-12-11T07:46:38;12.55;;;8.02;;
45059;SDS011;30799;49.060;9.312;2022-12-11T07:49:05;10.88;;;7.90;;
45059;SDS011;30799;49.060;9.312;2022-12-11T07:51:33;11.18;;;7.85;;
45059;SDS011;30799;49.060;9.312;2022-12-11T07:54:02;10.38;;;7.60;;
45059;SDS011;30799;49.060;9.312;2022-12-11T07:56:31;13.15;;;7.65;;
45059;SDS011;30799;49.060;9.312;2022-12-11T07:58:59;11.65;;;7.90;;
45059;SDS011;30799;49.060;9.312;2022-12-11T08:01:27;11.30;;;6.97;;
45059;SDS011;30799;49.060;9.312;2022-12-11T08:03:56;10.30;;;6.85;;
45059;SDS011;30799;49.060;9.312;2022-12-11T08:06:24;11.27;;;6.93;;
45059;SDS011;30799;49.060;9.312;2022-12-11T08:08:59;10.88;;;7.32;;
45059;SDS011;30799;49.060;9.312;2022-12-11T08:11:26;21.95;;;20.10;;
45059;SDS011;30799;49.060;9.312;2022-12-11T08:13:54;10.13;;;7.35;;
45059;SDS011;30799;49.060;9.312;2022-12-11T08:16:21;10.55;;;6.68;;
45059;SDS011;30799;49.060;9.312;2022-12-11T08:18:48;11.38;;;6.72;;
45059;SDS011;30799;49.060;9.312;2022-12-11T08:21:16;11.68;;;9.18;;
45059;SDS011;30799;49.060;9.312;2022-12-11T08:23:45;10.70;;;6.80;;
45059;SDS011;30799;49.060;9.312;2022-12-11T08:26:16;8.35;;;6.03;;
45059;SDS011;30799;49.060;9.312;2022-12-11T08:28:44;9.88;;;6.50;;
45059;SDS011;30799;49.060;9.312;2022-12-11T08:31:11;7.53;;;5.50;;
45059;SDS011;30799;49.060;9.312;2022-12-11T08:33:39;9.45;;;6.55;;
45059;SDS011;30799;49.060;9.312;2022-12-11T08:36:07;8.75;;;6.07;;
45059;SDS011;30799;49.060;9.312;2022-12-11T08:38:35;10.85;;;6.13;;
45059;SDS011;30799;49.060;9.312;2022-12-11T08:41:12;8.82;;;6.22;;
45059;SDS011;30799;49.060;9.312;2022-12-11T08:43:41;7.05;;;5.45;;
45059;SDS011;30799;49.060;9.312;2022-12-11T08:46:08;8.93;;;6.20;;
45059;SDS011;30799;49.060;9.312;2022-12-11T08:48:36;8.45;;;6.07;;
45059;SDS011;30799;49.060;9.312;2022-12-11T08:51:05;11.50;;;8.82;;
45059;SDS011;30799;49.060;9.312;2022-12-11T08:53:33;13.40;;;8.68;;
45059;SDS011;30799;49.060;9.312;2022-12-11T08:56:03;10.52;;;7.18;;
45059;SDS011;30799;49.060;9.312;2022-12-11T08:58:31;11.03;;;7.30;;
45059;SDS011;30799;49.060;9.312;2022-12-11T09:00:58;8.43;;;6.32;;
45059;SDS011;30799;49.060;9.312;2022-12-11T09:03:25;26.38;;;18.00;;
45059;SDS011;30799;49.060;9.312;2022-12-11T09:05:52;15.70;;;9.80;;
45059;SDS011;30799;49.060;9.312;2022-12-11T09:08:19;13.43;;;8.13;;
45059;SDS011;30799;49.060;9.312;2022-12-11T09:10:46;22.73;;;8.10;;
45059;SDS011;30799;49.060;9.312;2022-12-11T09:13:12;14.10;;;7.38;;
45059;SDS011;30799;49.060;9.312;2022-12-11T09:15:39;12.25;;;7.38;;
45059;SDS011;30799;49.060;9.312;2022-12-11T09:18:07;14.30;;;6.88;;
45059;SDS011;30799;49.060;9.312;2022-12-11T09:20:33;16.33;;;6.85;;
45059;SDS011;30799;49.060;9.312;2022-12-11T09:23:00;12.80;;;6.68;;
45059;SDS011;30799;49.060;9.312;2022-12-11T09:25:27;11.32;;;6.32;;
45059;SDS011;30799;49.060;9.312;2022-12-11T09:27:54;15.43;;;6.10;;
45059;SDS011;30799;49.060;9.312;2022-12-11T09:30:21;20.17;;;6.15;;
45059;SDS011;30799;49.060;9.312;2022-12-11T09:32:48;9.77;;;5.50;;
45059;SDS011;30799;49.060;9.312;2022-12-11T09:35:14;14.27;;;6.03;;
45059;SDS011;30799;49.060;9.312;2022-12-11T09:37:41;14.07;;;5.68;;
45059;SDS011;30799;49.060;9.312;2022-12-11T09:40:09;7.97;;;5.28;;
45059;SDS011;30799;49.060;9.312;2022-12-11T09:42:44;8.10;;;5.25;;
45059;SDS011;30799;49.060;9.312;2022-12-11T09:45:39;11.27;;;5.75;;
45059;SDS011;30799;49.060;9.312;2022-12-11T09:48:06;10.38;;;4.90;;
45059;SDS011;30799;49.060;9.312;2022-12-11T09:50:35;21.17;;;5.35;;
45059;SDS011;30799;49.060;9.312;2022-12-11T09:58:38;24.98;;;19.13;;
45059;SDS011;30799;49.060;9.312;2022-12-11T10:01:16;21.77;;;14.95;;
45059;SDS011;30799;49.060;9.312;2022-12-11T10:06:41;13.75;;;8.25;;
45059;SDS011;30799;49.060;9.312;2022-12-11T10:14:46;18.80;;;12.27;;
45059;SDS011;30799;49.060;9.312;2022-12-11T10:17:39;12.70;;;8.00;;
45059;SDS011;30799;49.060;9.312;2022-12-11T10:22:49;11.20;;;7.63;;
45059;SDS011;30799;49.060;9.312;2022-12-11T10:30:16;13.07;;;7.30;;
45059;SDS011;30799;49.060;9.312;2022-12-11T10:35:35;15.43;;;6.55;;
45059;SDS011;30799;49.060;9.312;2022-12-11T10:38:30;7.80;;;5.43;;
45059;SDS011;30799;49.060;9.312;2022-12-11T10:41:00;8.52;;;6.10;;
45059;SDS011;30799;49.060;9.312;2022-12-11T10:43:33;11.82;;;5.55;;
45059;SDS011;30799;49.060;9.312;2022-12-11T10:46:06;7.97;;;5.55;;
45059;SDS011;30799;49.060;9.312;2022-12-11T10:51:24;12.50;;;5.95;;
45059;SDS011;30799;49.060;9.312;2022-12-11T10:54:01;9.10;;;5.20;;
45059;SDS011;30799;49.060;9.312;2022-12-11T10:56:43;9.25;;;5.00;;
45059;SDS011;30799;49.060;9.312;2022-12-11T11:01:57;5.78;;;4.00;;
45059;SDS011;30799;49.060;9.312;2022-12-11T11:04:31;6.63;;;4.05;;
45059;SDS011;30799;49.060;9.312;2022-12-11T11:07:22;8.10;;;4.40;;
45059;SDS011;30799;49.060;9.312;2022-12-11T11:12:27;19.10;;;15.05;;
45059;SDS011;30799;49.060;9.312;2022-12-11T11:15:02;24.63;;;20.23;;
45059;SDS011;30799;49.060;9.312;2022-12-11T11:17:56;28.02;;;20.73;;
45059;SDS011;30799;49.060;9.312;2022-12-11T11:20:43;19.85;;;14.77;;
45059;SDS011;30799;49.060;9.312;2022-12-11T11:23:13;17.88;;;12.48;;
45059;SDS011;30799;49.060;9.312;2022-12-11T11:26:15;15.35;;;11.77;;
45059;SDS011;30799;49.060;9.312;2022-12-11T11:31:06;18.73;;;12.40;;
45059;SDS011;30799;49.060;9.312;2022-12-11T11:36:26;14.50;;;11.00;;
45059;SDS011;30799;49.060;9.312;2022-12-11T11:44:14;37.80;;;20.85;;
45059;SDS011;30799;49.060;9.312;2022-12-11T11:46:46;26.15;;;14.00;;
45059;SDS011;30799;49.060;9.312;2022-12-11T11:49:23;28.85;;;13.95;;
45059;SDS011;30799;49.060;9.312;2022-12-11T11:52:10;30.60;;;14.73;;
45059;SDS011;30799;49.060;9.312;2022-12-11T11:54:46;18.50;;;12.07;;
45059;SDS011;30799;49.060;9.312;2022-12-11T11:57:16;19.08;;;12.60;;
45059;SDS011;30799;49.060;9.312;2022-12-11T12:00:00;19.20;;;12.25;;
45059;SDS011;30799;49.060;9.312;2022-12-11T12:02:40;24.15;;;12.48;;
45059;SDS011;30799;49.060;9.312;2022-12-11T12:05:11;19.10;;;11.57;;
45059;SDS011;30799;49.060;9.312;2022-12-11T12:07:41;20.65;;;10.88;;
45059;SDS011;30799;49.060;9.312;2022-12-11T12:10:22;23.98;;;11.32;;
45059;SDS011;30799;49.060;9.312;2022-12-11T12:13:05;20.63;;;11.25;;
45059;SDS011;30799;49.060;9.312;2022-12-11T12:15:59;21.40;;;11.27;;
45059;SDS011;30799;49.060;9.312;2022-12-11T12:24:08;19.80;;;10.30;;
45059;SDS011;30799;49.060;9.312;2022-12-11T12:30:16;15.32;;;9.65;;
45059;SDS011;30799;49.060;9.312;2022-12-11T12:40:55;16.95;;;9.57;;
45059;SDS011;30799;49.060;9.312;2022-12-11T12:43:41;17.98;;;9.57;;
45059;SDS011;30799;49.060;9.312;2022-12-11T12:46:27;16.05;;;9.23;;
45059;SDS011;30799;49.060;9.312;2022-12-11T12:48:57;18.90;;;10.40;;
